createdAt,value
2023-01-05T00:01:53.115Z,98806.97
2023-01-05T00:04:20.618Z,98803.28
2023-01-05T00:06:47.514Z,98805.19
2023-01-05T00:09:17.581Z,98797.00
2023-01-05T00:12:02.903Z,98802.69
2023-01-05T00:14:50.366Z,98810.84
2023-01-05T00:17:38.941Z,98796.34
2023-01-05T00:20:30.129Z,98796.28
2023-01-05T00:22:57.051Z,98792.78
2023-01-05T00:25:30.090Z,98796.75
2023-01-05T00:27:59.017Z,98795.78
2023-01-05T00:30:32.677Z,98785.63
2023-01-05T00:32:59.708Z,98789.41
2023-01-05T00:35:26.691Z,98791.78
2023-01-05T00:37:54.979Z,98785.66
2023-01-05T00:40:25.460Z,98789.56
2023-01-05T00:42:54.937Z,98785.28
2023-01-05T00:45:22.279Z,98791.28
2023-01-05T00:47:51.846Z,98795.03
2023-01-05T00:50:19.772Z,98779.72
2023-01-05T00:52:47.187Z,98786.84
2023-01-05T00:55:14.859Z,98773.66
2023-01-05T00:57:42.214Z,98782.72
2023-01-05T01:00:17.342Z,98778.00
2023-01-05T01:02:44.562Z,98775.03
2023-01-05T01:05:11.880Z,98769.53
2023-01-05T01:07:39.007Z,98766.59
2023-01-05T01:10:07.024Z,98757.06
2023-01-05T01:12:34.073Z,98765.69
2023-01-05T01:15:01.063Z,98753.16
2023-01-05T01:17:28.345Z,98760.72
2023-01-05T01:19:55.238Z,98749.78
2023-01-05T01:22:22.245Z,98748.69
2023-01-05T01:24:49.267Z,98745.44
2023-01-05T01:27:16.243Z,98748.78
2023-01-05T01:29:43.144Z,98737.84
2023-01-05T01:32:10.203Z,98731.53
2023-01-05T01:34:37.190Z,98727.03
2023-01-05T01:37:04.182Z,98726.88
2023-01-05T01:39:37.010Z,98722.06
2023-01-05T01:42:15.017Z,98713.25
2023-01-05T01:45:02.658Z,98708.25
2023-01-05T01:47:45.900Z,98709.44
2023-01-05T01:50:30.916Z,98703.28
2023-01-05T01:53:08.259Z,98702.06
2023-01-05T01:55:36.979Z,98700.97
2023-01-05T01:58:07.418Z,98697.00
2023-01-05T02:00:34.471Z,98699.16
2023-01-05T02:03:01.386Z,98701.97
2023-01-05T02:05:32.832Z,98689.25
2023-01-05T02:07:59.843Z,98686.00
2023-01-05T02:10:57.489Z,98683.44
2023-01-05T02:13:38.474Z,98658.47
2023-01-05T02:16:34.615Z,98664.28
2023-01-05T02:19:24.058Z,98661.06
2023-01-05T02:22:19.907Z,98649.34
2023-01-05T02:24:58.629Z,98661.78
2023-01-05T02:27:47.314Z,98648.22
2023-01-05T02:30:44.560Z,98646.63
2023-01-05T02:33:54.900Z,98644.84
2023-01-05T02:36:44.157Z,98647.25
2023-01-05T02:39:16.778Z,98640.13
2023-01-05T02:41:49.294Z,98631.59
2023-01-05T02:44:18.929Z,98624.91
2023-01-05T02:47:28.240Z,98621.06
2023-01-05T02:50:04.941Z,98613.03
2023-01-05T02:52:54.637Z,98611.22
2023-01-05T02:55:32.384Z,98613.41
2023-01-05T02:58:16.670Z,98616.56
2023-01-05T03:00:50.818Z,98607.06
2023-01-05T03:03:34.323Z,98613.09
2023-01-05T03:06:47.283Z,98606.03
2023-01-05T03:09:20.230Z,98597.66
2023-01-05T03:12:28.502Z,98593.63
2023-01-05T03:15:12.577Z,98597.88
2023-01-05T03:17:51.401Z,98594.88
2023-01-05T03:20:24.682Z,98593.34
2023-01-05T03:23:15.074Z,98581.94
2023-01-05T03:26:00.960Z,98576.84
2023-01-05T03:28:58.083Z,98573.75
2023-01-05T03:32:29.102Z,98572.06
2023-01-05T03:35:29.771Z,98580.31
2023-01-05T03:38:00.563Z,98569.63
2023-01-05T03:40:31.178Z,98567.78
2023-01-05T03:42:59.152Z,98569.63
2023-01-05T03:45:35.427Z,98567.72
2023-01-05T03:48:03.017Z,98562.63
2023-01-05T03:50:30.384Z,98565.16
2023-01-05T03:52:58.096Z,98559.38
2023-01-05T03:55:29.795Z,98567.22
2023-01-05T03:57:56.852Z,98555.59
2023-01-05T04:00:25.683Z,98554.41
2023-01-05T04:03:00.278Z,98555.63
2023-01-05T04:05:27.627Z,98557.69
2023-01-05T04:07:54.632Z,98559.13
2023-01-05T04:10:22.228Z,98555.00
2023-01-05T04:12:49.807Z,98550.13
2023-01-05T04:15:18.492Z,98549.22
2023-01-05T04:17:46.003Z,98551.09
2023-01-05T04:20:13.486Z,98558.72
2023-01-05T04:22:41.119Z,98559.00
2023-01-05T04:25:09.575Z,98563.41
2023-01-05T04:27:37.153Z,98557.47
2023-01-05T04:30:06.473Z,98550.66
2023-01-05T04:32:34.343Z,98556.47
2023-01-05T04:35:06.999Z,98550.91
2023-01-05T04:37:40.481Z,98559.03
2023-01-05T04:40:09.113Z,98559.94
2023-01-05T04:42:44.125Z,98557.44
2023-01-05T04:45:11.446Z,98550.88
2023-01-05T04:47:38.531Z,98543.34
2023-01-05T04:50:06.532Z,98546.47
2023-01-05T04:52:33.466Z,98544.06
2023-01-05T04:55:02.339Z,98535.63
2023-01-05T04:57:30.499Z,98536.28
2023-01-05T04:59:58.188Z,98531.88
2023-01-05T05:02:25.415Z,98531.25
2023-01-05T05:04:52.640Z,98517.06
2023-01-05T05:07:21.689Z,98510.81
2023-01-05T05:09:48.711Z,98510.16
2023-01-05T05:12:20.452Z,98500.56
2023-01-05T05:14:50.739Z,98498.03
2023-01-05T05:17:18.268Z,98494.06
2023-01-05T05:19:45.222Z,98502.19
2023-01-05T05:22:12.990Z,98499.06
2023-01-05T05:24:39.928Z,98500.81
2023-01-05T05:27:08.457Z,98500.56
2023-01-05T05:29:35.476Z,98497.06
2023-01-05T05:32:02.293Z,98496.53
2023-01-05T05:34:29.294Z,98485.16
2023-01-05T05:36:56.197Z,98486.22
2023-01-05T05:39:23.036Z,98484.03
2023-01-05T05:41:49.962Z,98476.16
2023-01-05T05:44:17.013Z,98471.09
2023-01-05T05:46:44.052Z,98471.81
2023-01-05T05:49:10.986Z,98467.72
2023-01-05T05:51:37.889Z,98466.19
2023-01-05T05:54:04.938Z,98462.03
2023-01-05T05:56:31.897Z,98461.41
2023-01-05T05:59:01.573Z,98472.94
2023-01-05T06:01:29.356Z,98467.38
2023-01-05T06:03:56.437Z,98464.13
2023-01-05T06:06:23.355Z,98448.47
2023-01-05T06:08:51.140Z,98437.75
2023-01-05T06:11:18.170Z,98439.69
2023-01-05T06:13:45.291Z,98435.50
2023-01-05T06:16:12.212Z,98436.06
2023-01-05T06:18:39.163Z,98436.50
2023-01-05T06:21:06.399Z,98438.38
2023-01-05T06:23:33.326Z,98433.03
2023-01-05T06:26:00.222Z,98436.75
2023-01-05T06:28:27.149Z,98436.88
2023-01-05T06:30:54.055Z,98428.44
2023-01-05T06:33:20.930Z,98437.50
2023-01-05T06:35:47.927Z,98435.97
2023-01-05T06:38:16.254Z,98443.09
2023-01-05T06:40:44.705Z,98440.16
2023-01-05T06:43:12.320Z,98436.06
2023-01-05T06:45:39.380Z,98430.75
2023-01-05T06:48:06.630Z,98433.72
2023-01-05T06:50:33.486Z,98425.59
2023-01-05T06:53:00.675Z,98433.81
2023-01-05T06:55:27.821Z,98436.22
2023-01-05T06:58:00.524Z,98445.53
2023-01-05T07:00:28.601Z,98435.53
2023-01-05T07:02:55.641Z,98430.19
2023-01-05T07:05:24.758Z,98430.19
2023-01-05T07:07:51.912Z,98422.09
2023-01-05T07:10:18.879Z,98417.81
2023-01-05T07:12:45.763Z,98423.31
2023-01-05T07:15:12.717Z,98417.91
2023-01-05T07:17:39.876Z,98409.03
2023-01-05T07:20:08.118Z,98401.72
2023-01-05T07:22:35.385Z,98409.25
2023-01-05T07:25:02.359Z,98412.44
2023-01-05T07:27:29.267Z,98401.53
2023-01-05T07:29:56.215Z,98396.84
2023-01-05T07:32:23.200Z,98391.41
2023-01-05T07:34:55.252Z,98394.47
2023-01-05T07:37:25.047Z,98385.25
2023-01-05T07:39:52.611Z,98381.28
2023-01-05T07:42:19.689Z,98378.41
2023-01-05T07:44:48.438Z,98383.47
2023-01-05T07:47:15.296Z,98381.91
2023-01-05T07:49:42.224Z,98377.25
2023-01-05T07:52:09.336Z,98367.47
2023-01-05T07:54:36.306Z,98374.53
2023-01-05T07:57:03.588Z,98371.28
2023-01-05T07:59:30.613Z,98376.28
2023-01-05T08:01:58.724Z,98368.63
2023-01-05T08:04:25.914Z,98363.97
2023-01-05T08:06:52.945Z,98361.88
2023-01-05T08:09:38.457Z,98362.81
2023-01-05T08:12:05.757Z,98352.56
2023-01-05T08:14:32.933Z,98347.47
2023-01-05T08:16:59.950Z,98341.22
2023-01-05T08:19:27.058Z,98340.34
2023-01-05T08:21:53.986Z,98343.38
2023-01-05T08:24:20.873Z,98338.81
2023-01-05T08:26:50.796Z,98328.53
2023-01-05T08:29:17.750Z,98336.81
2023-01-05T08:31:44.704Z,98332.91
2023-01-05T08:34:11.621Z,98322.28
2023-01-05T08:36:40.132Z,98324.28
2023-01-05T08:39:07.487Z,98319.97
2023-01-05T08:41:36.669Z,98319.91
2023-01-05T08:44:10.740Z,98311.63
2023-01-05T08:46:37.823Z,98306.63
2023-01-05T08:49:07.642Z,98300.47
2023-01-05T08:51:34.672Z,98299.69
2023-01-05T08:54:01.695Z,98299.81
2023-01-05T08:56:34.619Z,98280.66
2023-01-05T08:59:05.242Z,98278.75
2023-01-05T09:01:32.259Z,98274.81
2023-01-05T09:03:59.283Z,98265.56
2023-01-05T09:06:26.215Z,98253.63
2023-01-05T09:08:53.160Z,98257.88
2023-01-05T09:11:22.457Z,98267.78
2023-01-05T09:13:54.836Z,98256.06
2023-01-05T09:16:56.918Z,98250.56
2023-01-05T09:19:12.089Z,98230.47
2023-01-05T09:21:41.759Z,98236.31
2023-01-05T09:24:13.037Z,98225.66
2023-01-05T09:26:41.322Z,98221.47
2023-01-05T09:29:09.196Z,98219.13
2023-01-05T09:31:36.172Z,98202.63
2023-01-05T09:34:04.245Z,98194.69
2023-01-05T09:36:32.452Z,98200.78
2023-01-05T09:38:59.547Z,98183.25
2023-01-05T09:41:58.805Z,98174.22
2023-01-05T09:44:25.664Z,98159.25
2023-01-05T10:17:41.750Z,98090.19
2023-01-05T10:20:50.034Z,98079.44
2023-01-05T10:23:24.639Z,98076.06
2023-01-05T10:26:08.056Z,98077.50
2023-01-05T10:28:47.109Z,98079.41
2023-01-05T10:31:14.172Z,98059.00
2023-01-05T10:33:56.675Z,98055.13
2023-01-05T10:37:13.639Z,98053.16
2023-01-05T10:40:21.486Z,98053.41
2023-01-05T10:43:09.259Z,98048.28
2023-01-05T10:45:57.264Z,98058.75
2023-01-05T10:48:31.714Z,98052.22
2023-01-05T10:50:58.966Z,98042.91
2023-01-05T10:53:29.158Z,98040.66
2023-01-05T10:56:06.527Z,98035.53
2023-01-05T10:58:36.063Z,98028.66
2023-01-05T11:01:05.689Z,98017.00
2023-01-05T11:06:35.423Z,98013.09
2023-01-05T11:09:24.006Z,97994.00
2023-01-05T11:12:02.355Z,97992.84
2023-01-05T11:14:33.486Z,97995.88
2023-01-05T11:17:06.981Z,97997.84
2023-01-05T11:19:43.884Z,97995.97
2023-01-05T11:22:36.879Z,97985.47
2023-01-05T11:25:27.568Z,97975.91
2023-01-05T11:28:09.315Z,97974.16
2023-01-05T11:30:37.709Z,97963.69
2023-01-05T11:33:16.252Z,97962.69
2023-01-05T11:35:46.858Z,97949.97
2023-01-05T11:38:26.203Z,97961.50
2023-01-05T11:40:56.452Z,97955.47
2023-01-05T11:43:27.071Z,97946.34
2023-01-05T11:45:57.889Z,97944.41
2023-01-05T11:48:29.025Z,97938.53
2023-01-05T11:50:58.356Z,97935.47
2023-01-05T11:53:36.391Z,97922.81
2023-01-05T11:56:13.624Z,97936.50
2023-01-05T11:58:46.858Z,97930.41
2023-01-05T12:01:32.965Z,97936.06
2023-01-05T12:04:21.318Z,97930.91
2023-01-05T12:07:00.205Z,97936.72
2023-01-05T12:09:39.681Z,97930.63
2023-01-05T12:13:02.236Z,97932.44
2023-01-05T12:15:34.953Z,97933.22
2023-01-05T12:18:38.936Z,97929.63
2023-01-05T12:21:15.108Z,97919.00
2023-01-05T12:23:47.420Z,97920.13
2023-01-05T12:26:38.570Z,97919.88
2023-01-05T12:35:39.026Z,97919.97
2023-01-05T12:38:30.052Z,97912.88
2023-01-05T12:41:05.791Z,97910.75
2023-01-05T12:43:51.283Z,97904.84
2023-01-05T12:46:33.346Z,97904.16
2023-01-05T12:49:06.150Z,97906.16
2023-01-05T12:51:36.445Z,97900.34
2023-01-05T12:54:10.702Z,97908.91
2023-01-05T12:57:09.134Z,97915.69
2023-01-05T12:59:45.042Z,97906.78
2023-01-05T13:02:33.635Z,97919.16
2023-01-05T13:05:18.946Z,97917.63
2023-01-05T13:07:54.302Z,97910.00
2023-01-05T13:10:44.605Z,97914.31
2023-01-05T13:13:14.957Z,97921.47
2023-01-05T13:15:54.257Z,97915.19
2023-01-05T13:18:24.802Z,97908.66
2023-01-05T13:20:57.903Z,97904.16
2023-01-05T13:23:27.441Z,97901.59
2023-01-05T13:26:03.200Z,97882.53
2023-01-05T13:28:31.972Z,97870.59
2023-01-05T13:31:09.073Z,97878.00
2023-01-05T13:33:39.565Z,97870.09
2023-01-05T13:36:24.929Z,97869.53
2023-01-05T13:39:07.050Z,97869.38
2023-01-05T13:41:52.473Z,97867.09
2023-01-05T13:44:49.339Z,97857.03
2023-01-05T13:47:16.658Z,97853.88
2023-01-05T13:50:21.920Z,97856.19
2023-01-05T13:52:57.544Z,97855.84
2023-01-05T13:55:26.824Z,97863.94
2023-01-05T13:57:57.866Z,97852.63
2023-01-05T14:00:40.057Z,97832.00
2023-01-05T14:03:20.898Z,97824.94
2023-01-05T14:05:57.605Z,97830.22
2023-01-05T14:08:29.801Z,97833.66
2023-01-05T14:11:21.310Z,97836.41
2023-01-05T14:13:59.764Z,97830.97
2023-01-05T14:16:38.748Z,97820.63
2023-01-05T14:19:46.816Z,97834.41
2023-01-05T14:22:19.315Z,97841.78
2023-01-05T14:24:49.456Z,97834.53
2023-01-05T14:27:17.803Z,97840.16
2023-01-05T14:29:44.847Z,97845.22
2023-01-05T14:32:22.021Z,97851.28
2023-01-05T14:34:52.722Z,97845.06
2023-01-05T14:37:29.683Z,97845.59
2023-01-05T14:40:04.145Z,97836.66
2023-01-05T14:42:39.970Z,97833.13
2023-01-05T14:45:20.473Z,97817.31
2023-01-05T14:47:49.982Z,97824.78
2023-01-05T14:50:39.353Z,97819.63
2023-01-05T14:53:43.420Z,97818.94
2023-01-05T14:56:16.958Z,97813.28
2023-01-05T14:58:43.968Z,97820.13
2023-01-05T15:01:17.315Z,97827.53
2023-01-05T15:03:55.424Z,97831.97
2023-01-05T15:06:38.520Z,97833.84
2023-01-05T15:09:30.510Z,97841.09
2023-01-05T15:12:32.637Z,97831.53
2023-01-05T15:15:20.329Z,97833.81
2023-01-05T15:18:22.533Z,97831.56
2023-01-05T15:20:52.336Z,97819.03
2023-01-05T15:23:36.498Z,97816.47
2023-01-05T15:26:40.314Z,97820.84
2023-01-05T15:29:46.372Z,97814.78
2023-01-05T15:32:14.457Z,97819.88
2023-01-05T15:34:47.569Z,97823.88
2023-01-05T15:37:31.060Z,97833.84
2023-01-05T15:40:04.674Z,97822.81
2023-01-05T15:42:42.353Z,97829.69
2023-01-05T15:45:35.240Z,97832.31
2023-01-05T15:48:13.187Z,97823.88
2023-01-05T15:50:53.420Z,97825.66
2023-01-05T15:53:30.889Z,97820.19
2023-01-05T15:55:58.739Z,97815.34
2023-01-05T15:58:29.410Z,97814.22
2023-01-05T16:01:05.167Z,97809.63
2023-01-05T16:03:34.886Z,97811.09
2023-01-05T16:06:09.087Z,97803.59
2023-01-05T16:08:42.082Z,97800.84
2023-01-05T16:11:11.294Z,97801.91
2023-01-05T16:14:02.391Z,97796.03
2023-01-05T16:16:51.946Z,97784.03
2023-01-05T16:19:45.109Z,97779.13
2023-01-05T16:22:21.590Z,97781.13
2023-01-05T16:24:57.265Z,97775.06
2023-01-05T16:27:25.300Z,97769.16
2023-01-05T16:29:52.286Z,97776.22
2023-01-05T16:32:30.012Z,97780.34
2023-01-05T16:35:35.842Z,97776.28
2023-01-05T16:38:08.899Z,97790.72
2023-01-05T16:41:05.034Z,97798.66
2023-01-05T16:43:42.526Z,97794.09
2023-01-05T16:46:20.518Z,97793.22
2023-01-05T16:48:52.027Z,97793.25
2023-01-05T16:51:22.133Z,97787.34
2023-01-05T16:53:57.223Z,97774.13
2023-01-05T16:56:33.187Z,97779.47
2023-01-05T16:59:24.249Z,97775.50
2023-01-05T17:01:52.218Z,97761.84
2023-01-05T17:04:19.146Z,97760.31
2023-01-05T17:06:48.584Z,97765.88
2023-01-05T17:09:27.766Z,97763.38
2023-01-05T17:11:55.289Z,97766.94
2023-01-05T17:14:23.945Z,97762.25
2023-01-05T17:16:51.424Z,97756.63
2023-01-05T17:19:20.986Z,97751.44
2023-01-05T17:22:10.315Z,97759.38
2023-01-05T17:24:39.229Z,97757.28
2023-01-05T17:27:06.241Z,97756.88
2023-01-05T17:29:33.552Z,97762.97
2023-01-05T17:32:00.436Z,97757.28
2023-01-05T17:34:27.454Z,97758.66
2023-01-05T17:36:57.488Z,97766.50
2023-01-05T17:39:24.535Z,97756.16
2023-01-05T17:41:51.915Z,97761.44
2023-01-05T17:44:19.573Z,97765.13
2023-01-05T17:46:47.812Z,97750.34
2023-01-05T17:49:17.991Z,97744.06
2023-01-05T17:51:45.036Z,97745.81
2023-01-05T17:54:12.648Z,97744.75
2023-01-05T17:56:39.733Z,97749.16
2023-01-05T17:59:07.209Z,97754.88
2023-01-05T18:01:34.467Z,97763.91
2023-01-05T18:04:02.193Z,97761.59
2023-01-05T18:06:29.256Z,97754.56
2023-01-05T18:08:57.671Z,97752.75
2023-01-05T18:11:24.745Z,97753.03
2023-01-05T18:13:51.706Z,97760.19
2023-01-05T18:16:18.695Z,97759.22
2023-01-05T18:18:45.726Z,97748.84
2023-01-05T18:21:12.695Z,97748.84
2023-01-05T18:23:39.712Z,97749.59
2023-01-05T18:26:08.975Z,97755.91
2023-01-05T18:28:37.345Z,97758.28
2023-01-05T18:31:15.351Z,97745.31
2023-01-05T18:33:42.579Z,97750.56
2023-01-05T18:36:13.991Z,97751.34
2023-01-05T18:38:41.796Z,97753.03
2023-01-05T18:41:09.396Z,97759.38
2023-01-05T18:43:36.470Z,97749.16
2023-01-05T18:46:04.519Z,97752.50
2023-01-05T18:48:31.627Z,97752.09
2023-01-05T18:50:58.755Z,97752.63
2023-01-05T18:53:25.876Z,97756.31
2023-01-05T18:55:53.223Z,97755.50
2023-01-05T18:58:20.101Z,97747.50
2023-01-05T19:00:47.426Z,97740.63
2023-01-05T19:03:14.579Z,97736.91
2023-01-05T19:05:43.822Z,97736.09
2023-01-05T19:08:12.457Z,97746.28
2023-01-05T19:10:40.351Z,97748.03
2023-01-05T19:13:08.125Z,97758.09
2023-01-05T19:15:36.802Z,97751.81
2023-01-05T19:18:04.004Z,97744.00
2023-01-05T19:20:31.920Z,97742.09
2023-01-05T19:23:00.307Z,97746.28
2023-01-05T19:25:27.762Z,97752.25
2023-01-05T19:27:54.875Z,97752.00
2023-01-05T19:30:23.849Z,97747.25
2023-01-05T19:32:51.556Z,97744.50
2023-01-05T19:35:18.775Z,97750.69
2023-01-05T19:37:45.829Z,97743.53
2023-01-05T19:40:13.085Z,97743.28
2023-01-05T19:42:40.118Z,97737.94
2023-01-05T19:45:09.545Z,97740.84
2023-01-05T19:47:40.861Z,97734.25
2023-01-05T19:50:10.275Z,97739.25
2023-01-05T19:52:38.465Z,97728.31
2023-01-05T19:55:06.351Z,97733.56
2023-01-05T19:57:33.514Z,97730.31
2023-01-05T20:00:00.431Z,97732.59
2023-01-05T20:02:27.465Z,97739.44
2023-01-05T20:04:54.635Z,97739.97
2023-01-05T20:07:22.538Z,97737.66
2023-01-05T20:09:51.413Z,97733.91
2023-01-05T20:12:18.474Z,97734.41
2023-01-05T20:14:45.578Z,97729.91
2023-01-05T20:17:13.410Z,97731.03
2023-01-05T20:19:41.087Z,97728.16
2023-01-05T20:22:13.926Z,97728.38
2023-01-05T20:24:42.278Z,97722.50
2023-01-05T20:27:12.660Z,97731.13
2023-01-05T20:29:40.856Z,97731.47
2023-01-05T20:32:28.192Z,97732.44
2023-01-05T20:35:00.386Z,97724.06
2023-01-05T20:37:29.377Z,97719.91
2023-01-05T20:39:58.505Z,97724.50
2023-01-05T20:42:27.024Z,97720.72
2023-01-05T20:44:54.301Z,97714.25
2023-01-05T20:47:21.292Z,97716.06
2023-01-05T20:49:48.520Z,97716.50
2023-01-05T20:52:17.799Z,97711.13
2023-01-05T20:54:45.211Z,97707.81
2023-01-05T20:57:12.496Z,97711.44
2023-01-05T20:59:40.978Z,97707.84
2023-01-05T21:02:22.471Z,97699.81
2023-01-05T21:04:50.936Z,97692.94
2023-01-05T21:07:18.042Z,97689.75
2023-01-05T21:09:44.968Z,97701.34
2023-01-05T21:12:11.960Z,97697.59
2023-01-05T21:14:38.967Z,97691.97
2023-01-05T21:17:06.099Z,97700.09
2023-01-05T21:19:34.071Z,97698.44
2023-01-05T21:22:01.072Z,97696.09
2023-01-05T21:24:28.397Z,97685.59
2023-01-05T21:26:55.424Z,97691.28
2023-01-05T21:29:26.162Z,97699.25
2023-01-05T21:31:56.570Z,97695.66
2023-01-05T21:34:23.928Z,97701.06
2023-01-05T21:36:51.104Z,97694.03
2023-01-05T21:39:21.632Z,97683.84
2023-01-05T21:42:09.149Z,97683.41
2023-01-05T21:44:36.516Z,97671.97
2023-01-05T21:47:05.828Z,97655.66
2023-01-05T21:49:34.914Z,97659.66
2023-01-05T21:52:20.305Z,97657.47
2023-01-05T21:55:05.975Z,97651.41
2023-01-05T21:57:32.969Z,97656.81
2023-01-05T21:59:59.927Z,97647.03
2023-01-05T22:02:26.893Z,97645.66
2023-01-05T22:04:53.831Z,97624.03
2023-01-05T22:07:20.800Z,97628.44
2023-01-05T22:09:47.813Z,97628.72
2023-01-05T22:12:14.793Z,97621.09
2023-01-05T22:14:41.780Z,97620.44
2023-01-05T22:17:09.904Z,97612.03
2023-01-05T22:19:37.072Z,97621.13
2023-01-05T22:22:04.649Z,97618.25
2023-01-05T22:24:31.582Z,97609.56
2023-01-05T22:26:58.659Z,97611.38
2023-01-05T22:29:25.742Z,97610.66
2023-01-05T22:31:52.813Z,97622.66
2023-01-05T22:34:20.008Z,97619.63
2023-01-05T22:36:47.108Z,97622.25
2023-01-05T22:39:14.143Z,97626.41
2023-01-05T22:41:41.324Z,97629.44
2023-01-05T22:44:08.594Z,97631.91
2023-01-05T22:46:35.843Z,97623.94
2023-01-05T22:49:03.012Z,97628.34
2023-01-05T22:51:33.625Z,97648.72
2023-01-05T22:54:01.184Z,97649.41
2023-01-05T22:56:31.975Z,97645.28
2023-01-05T22:58:59.529Z,97646.53
2023-01-05T23:01:38.695Z,97637.03
2023-01-05T23:04:07.210Z,97629.59
2023-01-05T23:06:35.139Z,97629.59
2023-01-05T23:09:04.319Z,97626.81
2023-01-05T23:11:37.661Z,97640.16
2023-01-05T23:14:07.280Z,97651.63
2023-01-05T23:16:35.486Z,97651.22
2023-01-05T23:19:05.656Z,97659.47
2023-01-05T23:21:33.519Z,97655.75
2023-01-05T23:24:00.770Z,97660.72
2023-01-05T23:26:28.246Z,97669.25
2023-01-05T23:28:56.231Z,97675.72
2023-01-05T23:31:23.769Z,97663.75
2023-01-05T23:33:51.220Z,97682.22
2023-01-05T23:36:20.094Z,97671.88
2023-01-05T23:38:47.283Z,97674.75
2023-01-05T23:41:15.845Z,97678.34
2023-01-05T23:43:45.284Z,97679.59
2023-01-05T23:46:20.807Z,97669.13
2023-01-05T23:48:49.077Z,97659.47
2023-01-05T23:51:17.322Z,97662.66
2023-01-05T23:53:50.326Z,97667.72
2023-01-05T23:56:20.247Z,97661.13
2023-01-05T23:58:48.271Z,97669.41
